createdAt,value
2023-11-15T00:00:13.479Z,1.70
2023-11-15T00:02:40.559Z,0.90
2023-11-15T00:05:07.974Z,2.85
2023-11-15T00:07:39.777Z,1.58
2023-11-15T00:10:06.730Z,0.90
2023-11-15T00:12:35.992Z,2.35
2023-11-15T00:15:07.354Z,2.30
2023-11-15T00:17:34.123Z,1.10
2023-11-15T00:20:05.109Z,1.98
2023-11-15T00:22:34.094Z,1.57
2023-11-15T00:25:01.240Z,2.53
2023-11-15T00:27:30.175Z,2.60
2023-11-15T00:30:01.848Z,2.00
2023-11-15T00:32:30.792Z,2.35
2023-11-15T00:34:57.734Z,1.50
2023-11-15T00:37:24.868Z,0.93
2023-11-15T00:39:51.907Z,2.13
2023-11-15T00:42:18.557Z,2.13
2023-11-15T00:44:45.806Z,1.60
2023-11-15T00:47:12.572Z,3.13
2023-11-15T00:49:45.337Z,2.03
2023-11-15T00:52:15.183Z,3.47
2023-11-15T00:54:44.484Z,3.22
2023-11-15T00:57:15.697Z,2.67
2023-11-15T00:59:47.122Z,1.93
2023-11-15T01:02:17.859Z,1.63
2023-11-15T01:04:51.697Z,1.52
2023-11-15T01:07:19.264Z,0.60
2023-11-15T01:09:51.521Z,2.25
2023-11-15T01:12:18.396Z,4.13
2023-11-15T01:14:48.069Z,2.72
2023-11-15T01:17:15.695Z,0.60
2023-11-15T01:19:42.362Z,1.85
2023-11-15T01:22:09.784Z,1.25
2023-11-15T01:24:40.815Z,2.03
2023-11-15T01:27:12.534Z,1.40
2023-11-15T01:29:42.280Z,0.73
2023-11-15T01:32:09.393Z,2.25
2023-11-15T01:34:36.442Z,1.17
2023-11-15T01:37:06.356Z,1.93
2023-11-15T01:39:38.049Z,2.22
2023-11-15T01:42:07.124Z,0.90
2023-11-15T01:44:35.421Z,0.80
2023-11-15T01:47:02.678Z,2.22
2023-11-15T01:49:29.462Z,0.87
2023-11-15T01:52:00.753Z,0.85
2023-11-15T01:54:32.561Z,1.80
2023-11-15T01:57:01.870Z,2.92
2023-11-15T01:59:31.511Z,1.50
2023-11-15T02:01:58.307Z,1.37
2023-11-15T02:04:28.874Z,2.60
2023-11-15T02:07:00.545Z,2.13
2023-11-15T02:09:30.935Z,2.10
2023-11-15T02:11:57.620Z,4.22
2023-11-15T02:14:24.365Z,3.20
2023-11-15T02:16:53.575Z,2.55
2023-11-15T02:19:22.817Z,3.58
2023-11-15T02:21:49.450Z,1.95
2023-11-15T02:24:16.427Z,1.50
2023-11-15T02:26:47.606Z,2.83
2023-11-15T02:29:14.449Z,5.03
2023-11-15T02:31:43.254Z,4.22
2023-11-15T02:34:12.339Z,3.95
2023-11-15T02:36:41.146Z,8.30
2023-11-15T02:39:08.052Z,13.60
2023-11-15T02:41:34.774Z,25.17
2023-11-15T02:44:03.864Z,27.25
2023-11-15T02:46:30.648Z,23.60
2023-11-15T02:48:59.677Z,25.00
2023-11-15T02:51:26.751Z,8.07
2023-11-15T02:53:53.917Z,4.25
2023-11-15T02:56:20.552Z,4.47
2023-11-15T02:58:47.183Z,3.35
2023-11-15T03:01:14.208Z,4.40
2023-11-15T03:03:46.824Z,2.97
2023-11-15T03:06:16.133Z,3.42
2023-11-15T03:08:42.821Z,3.25
2023-11-15T03:11:09.657Z,4.13
2023-11-15T03:13:38.785Z,2.40
2023-11-15T03:16:07.979Z,1.83
2023-11-15T03:18:34.700Z,1.77
2023-11-15T03:21:04.185Z,2.92
2023-11-15T03:23:33.206Z,3.40
2023-11-15T03:26:00.223Z,1.75
2023-11-15T03:28:26.873Z,3.10
2023-11-15T03:30:53.512Z,2.42
2023-11-15T03:33:20.573Z,2.00
2023-11-15T03:35:52.479Z,2.72
2023-11-15T03:38:19.133Z,2.35
2023-11-15T03:40:49.024Z,1.80
2023-11-15T03:43:16.017Z,4.82
2023-11-15T03:45:44.965Z,2.40
2023-11-15T03:48:12.404Z,5.10
2023-11-15T03:50:41.268Z,3.15
2023-11-15T03:53:08.874Z,2.60
2023-11-15T03:55:38.493Z,2.30
2023-11-15T03:58:07.347Z,2.75
2023-11-15T04:00:39.119Z,3.83
2023-11-15T04:03:07.972Z,4.20
2023-11-15T04:05:34.849Z,1.60
2023-11-15T04:08:03.606Z,2.83
2023-11-15T04:10:32.493Z,2.88
2023-11-15T04:13:03.863Z,3.72
2023-11-15T04:15:30.557Z,1.55
2023-11-15T04:17:59.657Z,4.00
2023-11-15T04:20:26.408Z,3.08
2023-11-15T04:22:55.511Z,2.92
2023-11-15T04:25:22.522Z,3.65
2023-11-15T04:27:53.895Z,3.40
2023-11-15T04:30:20.564Z,2.80
2023-11-15T04:32:49.741Z,2.28
2023-11-15T04:35:19.108Z,2.15
2023-11-15T04:37:48.132Z,5.75
2023-11-15T04:40:19.314Z,1.73
2023-11-15T04:42:46.325Z,1.37
2023-11-15T04:45:15.380Z,3.13
2023-11-15T04:47:42.131Z,3.35
2023-11-15T04:50:09.613Z,2.90
2023-11-15T04:52:36.341Z,4.50
2023-11-15T04:55:03.322Z,3.17
2023-11-15T04:57:30.583Z,3.63
2023-11-15T04:59:57.516Z,2.03
2023-11-15T05:02:25.003Z,4.57
2023-11-15T05:04:53.484Z,3.38
2023-11-15T05:07:21.529Z,2.43
2023-11-15T05:09:51.595Z,3.97
2023-11-15T05:12:21.213Z,2.88
2023-11-15T05:14:50.045Z,2.22
2023-11-15T05:17:16.733Z,4.65
2023-11-15T05:19:45.551Z,2.53
2023-11-15T05:22:12.316Z,2.80
2023-11-15T05:24:39.513Z,2.72
2023-11-15T05:27:11.367Z,3.05
2023-11-15T05:29:38.070Z,3.38
2023-11-15T05:32:05.226Z,2.17
2023-11-15T05:34:31.854Z,2.00
2023-11-15T05:36:58.865Z,2.75
2023-11-15T05:39:25.861Z,4.05
2023-11-15T05:41:54.847Z,1.85
2023-11-15T05:44:21.508Z,4.03
2023-11-15T05:46:50.551Z,1.77
2023-11-15T05:49:17.159Z,3.20
2023-11-15T05:51:43.819Z,1.48
2023-11-15T05:54:15.654Z,3.28
2023-11-15T05:56:50.406Z,1.70
2023-11-15T05:59:17.084Z,1.40
2023-11-15T06:01:44.379Z,2.25
2023-11-15T06:04:13.337Z,2.40
2023-11-15T06:06:42.257Z,3.03
2023-11-15T06:09:14.759Z,3.77
2023-11-15T06:11:43.510Z,4.88
2023-11-15T06:14:10.779Z,3.00
2023-11-15T06:16:42.242Z,4.13
2023-11-15T06:19:09.270Z,4.28
2023-11-15T06:21:42.401Z,2.33
2023-11-15T06:24:10.637Z,2.78
2023-11-15T06:26:40.844Z,5.93
2023-11-15T06:29:08.558Z,2.90
2023-11-15T06:31:39.184Z,4.53
2023-11-15T06:34:07.019Z,3.20
2023-11-15T06:36:36.219Z,3.85
2023-11-15T06:39:04.898Z,4.03
2023-11-15T06:41:39.924Z,5.57
2023-11-15T06:44:09.929Z,3.90
2023-11-15T06:46:40.629Z,4.83
2023-11-15T06:49:08.078Z,3.50
2023-11-15T06:51:35.242Z,4.30
2023-11-15T06:54:04.736Z,4.53
2023-11-15T06:56:31.620Z,1.88
2023-11-15T06:59:00.476Z,3.47
2023-11-15T07:01:27.213Z,4.38
2023-11-15T07:03:55.697Z,3.33
2023-11-15T07:06:24.998Z,2.70
2023-11-15T07:08:51.968Z,4.10
2023-11-15T07:11:23.607Z,6.07
2023-11-15T07:13:50.346Z,4.20
2023-11-15T07:16:21.504Z,3.55
2023-11-15T07:18:49.606Z,3.10
2023-11-15T07:21:20.924Z,4.07
2023-11-15T07:23:49.643Z,1.60
2023-11-15T07:26:19.299Z,3.40
2023-11-15T07:28:46.840Z,3.30
2023-11-15T07:31:16.198Z,3.78
2023-11-15T07:33:45.581Z,6.50
2023-11-15T07:36:13.549Z,4.80
2023-11-15T07:38:45.238Z,4.38
2023-11-15T07:41:12.191Z,3.15
2023-11-15T07:43:42.519Z,5.97
2023-11-15T07:46:12.009Z,4.07
2023-11-15T07:48:38.811Z,2.03
2023-11-15T07:51:06.390Z,5.53
2023-11-15T07:53:33.630Z,3.45
2023-11-15T07:56:03.685Z,3.10
2023-11-15T07:58:30.753Z,4.70
2023-11-15T08:00:58.039Z,2.20
2023-11-15T08:03:32.078Z,4.25
2023-11-15T08:06:02.270Z,3.08
2023-11-15T08:08:28.983Z,2.97
2023-11-15T08:10:57.671Z,3.15
2023-11-15T08:13:29.146Z,3.57
2023-11-15T08:15:57.979Z,4.63
2023-11-15T08:18:27.346Z,4.25
2023-11-15T08:20:54.707Z,2.88
2023-11-15T08:23:24.501Z,3.25
2023-11-15T08:25:53.233Z,5.43
2023-11-15T08:28:25.860Z,2.65
2023-11-15T08:30:52.592Z,2.45
2023-11-15T08:33:21.844Z,3.67
2023-11-15T08:35:49.438Z,4.93
2023-11-15T08:38:16.394Z,3.90
2023-11-15T08:40:50.243Z,4.78
2023-11-15T08:43:18.544Z,5.40
2023-11-15T08:45:48.622Z,4.85
2023-11-15T08:48:19.422Z,5.05
2023-11-15T08:50:51.019Z,3.60
2023-11-15T08:53:19.903Z,2.38
2023-11-15T08:55:50.269Z,2.60
2023-11-15T08:58:22.741Z,2.55
2023-11-15T09:00:54.755Z,3.90
2023-11-15T09:03:23.609Z,3.47
2023-11-15T09:05:50.800Z,3.38
2023-11-15T09:08:23.041Z,3.22
2023-11-15T09:10:52.895Z,2.90
2023-11-15T09:13:20.002Z,4.90
2023-11-15T09:15:54.610Z,3.67
2023-11-15T09:18:25.178Z,6.22
2023-11-15T09:20:53.743Z,3.17
2023-11-15T09:23:28.961Z,3.15
2023-11-15T09:26:01.014Z,2.65
2023-11-15T09:28:32.281Z,2.93
2023-11-15T09:31:01.665Z,3.85
2023-11-15T09:33:31.467Z,7.38
2023-11-15T09:36:01.349Z,3.30
2023-11-15T09:38:28.687Z,2.65
2023-11-15T09:40:55.314Z,2.37
2023-11-15T09:43:27.024Z,4.43
2023-11-15T09:46:00.190Z,5.22
2023-11-15T09:48:34.962Z,3.65
2023-11-15T09:51:05.792Z,3.00
2023-11-15T09:53:37.647Z,2.40
2023-11-15T09:56:08.404Z,2.58
2023-11-15T09:58:38.068Z,2.83
2023-11-15T10:01:06.247Z,1.85
2023-11-15T10:03:33.364Z,4.97
2023-11-15T10:06:07.161Z,2.07
2023-11-15T10:08:34.842Z,3.13
2023-11-15T10:11:06.917Z,2.35
2023-11-15T10:13:40.770Z,1.40
2023-11-15T10:16:37.646Z,2.20
2023-11-15T10:19:27.839Z,2.47
2023-11-15T10:22:06.525Z,1.50
2023-11-15T10:24:36.199Z,2.13
2023-11-15T10:27:12.552Z,4.05
2023-11-15T10:29:41.831Z,4.40
2023-11-15T10:32:09.004Z,3.10
2023-11-15T10:34:48.871Z,1.85
2023-11-15T10:37:15.930Z,2.95
2023-11-15T10:39:49.143Z,2.30
2023-11-15T10:42:20.039Z,2.45
2023-11-15T10:44:54.716Z,3.97
2023-11-15T10:47:24.236Z,0.75
2023-11-15T10:50:05.860Z,2.10
2023-11-15T10:52:36.053Z,1.85
2023-11-15T10:55:06.973Z,2.17
2023-11-15T10:57:36.021Z,2.50
2023-11-15T11:00:10.985Z,2.28
2023-11-15T11:02:42.910Z,2.45
2023-11-15T11:05:11.593Z,1.77
2023-11-15T11:08:11.373Z,1.88
2023-11-15T11:10:51.122Z,1.90
2023-11-15T11:13:24.848Z,1.83
2023-11-15T11:15:52.737Z,2.22
2023-11-15T11:18:23.421Z,1.63
2023-11-15T11:20:57.486Z,2.83
2023-11-15T11:23:28.099Z,2.43
2023-11-15T11:25:56.792Z,2.55
2023-11-15T11:28:28.278Z,3.60
2023-11-15T11:31:22.235Z,3.17
2023-11-15T11:34:10.021Z,1.25
2023-11-15T11:36:58.613Z,4.80
2023-11-15T11:39:48.220Z,2.38
2023-11-15T11:42:27.858Z,2.08
2023-11-15T11:44:58.542Z,2.33
2023-11-15T11:47:27.492Z,2.30
2023-11-15T11:49:57.988Z,2.07
2023-11-15T11:52:24.629Z,2.85
2023-11-15T11:54:54.615Z,2.08
2023-11-15T11:57:22.821Z,2.30
2023-11-15T12:00:20.371Z,3.55
2023-11-15T12:02:54.329Z,2.53
2023-11-15T12:05:27.866Z,3.38
2023-11-15T12:08:00.933Z,1.55
2023-11-15T12:10:30.102Z,2.08
2023-11-15T12:13:03.706Z,1.70
2023-11-15T12:15:30.778Z,1.80
2023-11-15T12:18:01.607Z,2.58
2023-11-15T12:20:41.563Z,3.45
2023-11-15T12:23:18.498Z,2.60
2023-11-15T12:25:59.023Z,2.85
2023-11-15T12:28:36.469Z,3.10
2023-11-15T12:31:06.514Z,5.18
2023-11-15T12:33:35.404Z,1.73
2023-11-15T12:36:07.596Z,1.35
2023-11-15T12:38:34.440Z,2.03
2023-11-15T12:41:06.241Z,2.13
2023-11-15T12:43:36.794Z,1.02
2023-11-15T12:46:20.481Z,3.67
2023-11-15T12:48:49.627Z,2.42
2023-11-15T12:51:19.617Z,1.55
2023-11-15T12:53:46.936Z,2.47
2023-11-15T12:56:18.689Z,1.60
2023-11-15T12:58:46.242Z,1.60
2023-11-15T13:01:17.931Z,2.28
2023-11-15T13:03:45.801Z,1.88
2023-11-15T13:06:16.820Z,2.10
2023-11-15T13:08:51.613Z,2.55
2023-11-15T13:11:27.384Z,1.92
2023-11-15T13:13:59.739Z,2.03
2023-11-15T13:16:28.956Z,2.35
2023-11-15T13:18:58.500Z,1.60
2023-11-15T13:21:26.343Z,2.38
2023-11-15T13:23:57.906Z,2.22
2023-11-15T13:26:26.419Z,1.50
2023-11-15T13:28:54.503Z,3.70
2023-11-15T13:31:25.593Z,1.77
2023-11-15T13:33:57.037Z,1.00
2023-11-15T13:36:29.539Z,2.15
2023-11-15T13:39:02.717Z,3.15
2023-11-15T13:41:29.762Z,2.63
2023-11-15T13:43:56.384Z,4.60
2023-11-15T13:46:29.613Z,3.22
2023-11-15T13:49:03.195Z,1.25
2023-11-15T13:51:32.630Z,4.00
2023-11-15T13:54:01.761Z,2.88
2023-11-15T13:56:29.329Z,2.97
2023-11-15T13:58:58.276Z,2.33
2023-11-15T14:01:25.587Z,3.85
2023-11-15T14:03:54.634Z,3.42
2023-11-15T14:06:21.410Z,3.03
2023-11-15T14:08:56.124Z,2.37
2023-11-15T14:11:30.450Z,2.45
2023-11-15T14:13:59.739Z,2.38
2023-11-15T14:16:29.513Z,2.40
2023-11-15T14:18:58.463Z,1.85
2023-11-15T14:21:27.629Z,2.17
2023-11-15T14:23:58.407Z,3.33
2023-11-15T14:26:26.626Z,2.53
2023-11-15T14:28:54.133Z,4.63
2023-11-15T14:31:23.195Z,3.90
2023-11-15T14:33:55.807Z,2.93
2023-11-15T14:36:26.235Z,2.95
2023-11-15T14:38:55.196Z,2.80
2023-11-15T14:41:23.182Z,2.20
2023-11-15T14:43:54.892Z,2.55
2023-11-15T14:46:26.628Z,2.07
2023-11-15T14:48:53.725Z,3.75
2023-11-15T14:51:25.300Z,1.25
2023-11-15T14:53:56.913Z,1.67
2023-11-15T14:56:24.040Z,1.55
2023-11-15T14:58:55.353Z,3.93
2023-11-15T15:01:28.785Z,1.65
2023-11-15T15:03:55.864Z,0.80
2023-11-15T15:06:23.104Z,1.67
2023-11-15T15:08:50.428Z,1.95
2023-11-15T15:11:19.399Z,5.47
2023-11-15T15:13:46.084Z,2.60
2023-11-15T15:16:13.170Z,3.00
2023-11-15T15:18:42.513Z,2.05
2023-11-15T15:21:11.002Z,2.53
2023-11-15T15:23:37.878Z,3.00
2023-11-15T15:26:08.610Z,3.63
2023-11-15T15:28:35.640Z,2.40
2023-11-15T15:31:06.969Z,2.17
2023-11-15T15:33:38.827Z,1.90
2023-11-15T15:36:10.339Z,3.63
2023-11-15T15:38:37.303Z,2.55
2023-11-15T15:41:08.632Z,2.38
2023-11-15T15:43:37.637Z,3.13
2023-11-15T15:46:04.515Z,4.82
2023-11-15T15:48:33.634Z,2.57
2023-11-15T15:51:06.466Z,2.90
2023-11-15T15:53:37.757Z,4.63
2023-11-15T15:56:05.247Z,4.05
2023-11-15T15:58:34.420Z,2.55
2023-11-15T16:01:01.054Z,4.23
2023-11-15T16:03:28.311Z,3.15
2023-11-15T16:05:55.052Z,2.15
2023-11-15T16:08:21.699Z,4.22
2023-11-15T16:10:51.275Z,2.47
2023-11-15T16:13:20.091Z,4.43
2023-11-15T16:15:47.125Z,5.13
2023-11-15T16:18:16.390Z,3.08
2023-11-15T16:20:43.070Z,3.50
2023-11-15T16:23:11.933Z,4.68
2023-11-15T16:25:38.923Z,1.47
2023-11-15T16:28:07.757Z,1.55
2023-11-15T16:30:37.041Z,3.60
2023-11-15T16:33:04.072Z,1.95
2023-11-15T16:35:33.634Z,1.55
2023-11-15T16:38:00.283Z,2.60
2023-11-15T16:40:29.801Z,1.45
2023-11-15T16:42:56.411Z,2.35
2023-11-15T16:45:25.560Z,1.35
2023-11-15T16:47:54.599Z,3.03
2023-11-15T16:50:21.727Z,4.27
2023-11-15T16:52:51.304Z,2.63
2023-11-15T16:55:20.385Z,2.75
2023-11-15T16:57:47.011Z,2.97
2023-11-15T17:00:14.648Z,2.65
2023-11-15T17:02:45.408Z,3.03
2023-11-15T17:05:14.646Z,2.05
2023-11-15T17:07:41.230Z,1.35
2023-11-15T17:10:10.324Z,2.00
2023-11-15T17:12:36.946Z,3.25
2023-11-15T17:15:04.255Z,2.60
2023-11-15T17:17:33.540Z,4.55
2023-11-15T17:20:01.343Z,2.72
2023-11-15T17:22:28.008Z,2.00
2023-11-15T17:24:56.826Z,3.55
2023-11-15T17:27:25.992Z,5.23
2023-11-15T17:29:53.388Z,4.38
2023-11-15T17:32:23.657Z,2.90
2023-11-15T17:34:53.117Z,3.22
2023-11-15T17:37:19.743Z,4.35
2023-11-15T17:39:48.916Z,7.40
2023-11-15T17:42:17.810Z,4.82
2023-11-15T17:44:46.912Z,6.00
2023-11-15T17:47:18.003Z,6.03
2023-11-15T17:49:45.279Z,5.57
2023-11-15T17:52:14.423Z,4.53
2023-11-15T17:54:41.033Z,5.10
2023-11-15T17:57:07.678Z,6.35
2023-11-15T17:59:34.660Z,6.70
2023-11-15T18:02:05.341Z,3.95
2023-11-15T18:04:36.764Z,4.60
2023-11-15T18:07:04.434Z,5.05
2023-11-15T18:09:33.206Z,4.03
2023-11-15T18:12:03.720Z,6.43
2023-11-15T18:14:32.796Z,3.03
2023-11-15T18:17:04.536Z,2.53
2023-11-15T18:19:31.171Z,3.55
2023-11-15T18:22:00.039Z,3.83
2023-11-15T18:24:26.760Z,3.17
2023-11-15T18:26:53.924Z,3.47
2023-11-15T18:29:22.825Z,2.97
2023-11-15T18:31:52.917Z,3.28
2023-11-15T18:34:20.261Z,2.45
2023-11-15T18:36:46.987Z,5.22
2023-11-15T18:39:16.347Z,3.10
2023-11-15T18:41:44.701Z,5.40
2023-11-15T18:44:16.943Z,3.05
2023-11-15T18:46:44.529Z,3.08
2023-11-15T18:49:14.570Z,5.28
2023-11-15T18:51:43.509Z,3.65
2023-11-15T18:54:12.449Z,2.50
2023-11-15T18:56:39.530Z,4.20
2023-11-15T18:59:08.442Z,6.25
2023-11-15T19:01:38.049Z,5.55
2023-11-15T19:04:09.072Z,5.78
2023-11-15T19:06:35.834Z,2.77
2023-11-15T19:09:02.551Z,6.13
2023-11-15T19:11:32.075Z,5.32
2023-11-15T19:13:59.261Z,4.07
2023-11-15T19:16:28.878Z,4.43
2023-11-15T19:18:56.621Z,3.40
2023-11-15T19:21:25.541Z,5.65
2023-11-15T19:23:52.492Z,3.95
2023-11-15T19:26:25.294Z,4.20
2023-11-15T19:28:54.413Z,4.22
2023-11-15T19:31:25.022Z,3.10
2023-11-15T19:33:53.750Z,3.38
2023-11-15T19:36:23.086Z,3.10
2023-11-15T19:38:49.788Z,2.88
2023-11-15T19:41:22.752Z,3.65
2023-11-15T19:43:49.429Z,6.90
2023-11-15T19:46:19.318Z,2.35
2023-11-15T19:48:47.219Z,4.60
2023-11-15T19:51:37.002Z,3.13
2023-11-15T19:54:08.379Z,2.42
2023-11-15T19:56:35.671Z,4.27
2023-11-15T19:59:05.043Z,4.68
2023-11-15T20:01:34.270Z,3.88
2023-11-15T20:04:05.316Z,3.53
2023-11-15T20:06:32.987Z,2.80
2023-11-15T20:09:00.415Z,3.70
2023-11-15T20:11:29.598Z,4.95
2023-11-15T20:13:58.564Z,4.18
2023-11-15T20:16:28.629Z,4.13
2023-11-15T20:18:55.819Z,3.05
2023-11-15T20:21:24.732Z,4.63
2023-11-15T20:23:53.519Z,3.83
2023-11-15T20:26:20.198Z,1.95
2023-11-15T20:28:49.092Z,3.13
2023-11-15T20:31:15.741Z,2.20
2023-11-15T20:33:44.757Z,5.90
2023-11-15T20:36:11.832Z,4.45
2023-11-15T20:38:43.397Z,5.15
2023-11-15T20:41:11.561Z,3.63
2023-11-15T20:43:42.678Z,3.95
2023-11-15T20:46:17.668Z,5.87
2023-11-15T20:48:47.254Z,2.92
2023-11-15T20:51:16.776Z,4.30
2023-11-15T20:53:43.618Z,3.13
2023-11-15T20:56:10.683Z,4.32
2023-11-15T20:58:37.894Z,7.13
2023-11-15T21:01:07.818Z,3.38
2023-11-15T21:03:37.242Z,5.20
2023-11-15T21:06:07.337Z,5.10
2023-11-15T21:08:38.479Z,5.88
2023-11-15T21:11:13.202Z,3.47
2023-11-15T21:13:44.958Z,3.78
2023-11-15T21:16:19.310Z,3.53
2023-11-15T21:18:52.311Z,3.38
2023-11-15T21:21:22.418Z,4.55
2023-11-15T21:23:51.478Z,5.17
2023-11-15T21:26:18.586Z,4.70
2023-11-15T21:28:48.760Z,4.53
2023-11-15T21:31:17.833Z,7.43
2023-11-15T21:33:44.468Z,5.40
2023-11-15T21:36:15.061Z,4.77
2023-11-15T21:38:41.729Z,5.57
2023-11-15T21:41:11.845Z,6.22
2023-11-15T21:43:38.782Z,9.43
2023-11-15T21:46:06.232Z,4.53
2023-11-15T21:48:34.363Z,5.10
2023-11-15T21:51:01.476Z,4.28
2023-11-15T21:53:32.308Z,4.22
2023-11-15T21:56:03.766Z,5.22
2023-11-15T21:58:33.144Z,3.03
2023-11-15T22:01:02.128Z,3.03
2023-11-15T22:03:28.812Z,4.85
2023-11-15T22:05:57.632Z,4.85
2023-11-15T22:08:24.696Z,4.45
2023-11-15T22:10:54.884Z,2.83
2023-11-15T22:13:24.170Z,2.60
2023-11-15T22:15:53.289Z,4.78
2023-11-15T22:18:20.441Z,2.67
2023-11-15T22:20:49.916Z,4.53
2023-11-15T22:23:18.795Z,3.28
2023-11-15T22:25:45.823Z,5.20
2023-11-15T22:28:14.683Z,3.50
2023-11-15T22:30:44.208Z,4.20
2023-11-15T22:33:15.517Z,6.35
2023-11-15T22:35:49.066Z,4.25
2023-11-15T22:38:16.999Z,4.87
2023-11-15T22:40:43.782Z,4.63
2023-11-15T22:43:14.438Z,4.55
2023-11-15T22:45:41.714Z,3.67
2023-11-15T22:48:08.618Z,3.53
2023-11-15T22:50:35.286Z,4.83
2023-11-15T22:53:04.867Z,4.43
2023-11-15T22:55:31.593Z,3.83
2023-11-15T22:58:00.544Z,2.85
2023-11-15T23:00:37.758Z,3.95
2023-11-15T23:03:10.498Z,6.03
2023-11-15T23:05:39.294Z,4.50
2023-11-15T23:08:09.172Z,5.15
2023-11-15T23:10:44.241Z,4.57
2023-11-15T23:13:11.130Z,3.72
2023-11-15T23:15:37.968Z,4.97
2023-11-15T23:18:07.467Z,5.35
2023-11-15T23:20:39.481Z,4.25
2023-11-15T23:23:08.513Z,4.97
2023-11-15T23:25:35.216Z,4.57
2023-11-15T23:28:01.927Z,3.57
2023-11-15T23:30:36.142Z,4.72
2023-11-15T23:33:03.072Z,2.65
2023-11-15T23:35:34.354Z,3.58
2023-11-15T23:38:01.626Z,5.15
2023-11-15T23:40:31.129Z,4.47
2023-11-15T23:42:57.888Z,6.50
2023-11-15T23:45:26.628Z,4.32
2023-11-15T23:47:56.430Z,2.35
2023-11-15T23:50:24.255Z,4.65
2023-11-15T23:52:54.365Z,3.07
2023-11-15T23:55:22.134Z,5.43
2023-11-15T23:57:51.537Z,7.03
